Time;durP1;ratioP1;P1;durP2;ratioP2;P2;SDS_P1;SDS_P2;PMS_P1;PMS_P2;Temp;Humidity;BMP_temperature;BMP_pressure;BME280_temperature;BME280_humidity;BME280_pressure;Samples;Min_cycle;Max_cycle;Signal;HPM_P1;HPM_P2
2023/05/21 00:02:10;;;;;;;8.85;7.35;;;20.30;84.70;;;;;;6339079;22;20019;-83
2023/05/21 00:04:36;;;;;;;7.95;5.78;;;20.30;84.50;;;;;;6339357;22;20005;-83
2023/05/21 00:07:02;;;;;;;7.50;6.68;;;20.30;84.40;;;;;;6339361;22;20006;-84
2023/05/21 00:09:28;;;;;;;6.40;5.65;;;20.30;84.30;;;;;;6339537;22;20003;-84
2023/05/21 00:11:54;;;;;;;7.07;6.10;;;20.30;84.00;;;;;;6337832;22;20006;-81
2023/05/21 00:14:19;;;;;;;6.28;5.05;;;20.20;84.00;;;;;;6339232;22;19999;-77
2023/05/21 00:16:45;;;;;;;8.45;6.07;;;20.30;84.00;;;;;;6338442;22;20498;-77
2023/05/21 00:19:12;;;;;;;6.88;5.32;;;20.20;84.20;;;;;;6337082;22;20363;-76
2023/05/21 00:21:38;;;;;;;6.43;5.60;;;20.30;84.30;;;;;;6337314;22;19995;-77
2023/05/21 00:24:04;;;;;;;6.95;6.10;;;20.30;83.90;;;;;;6338368;22;19999;-75
2023/05/21 00:26:30;;;;;;;7.88;6.20;;;20.30;83.70;;;;;;6336923;22;20023;-76
2023/05/21 00:28:56;;;;;;;7.85;6.03;;;20.30;83.50;;;;;;6338175;22;19999;-77
2023/05/21 00:31:22;;;;;;;7.18;5.53;;;20.30;83.40;;;;;;6338847;22;20041;-76
2023/05/21 00:33:47;;;;;;;6.30;5.70;;;20.30;83.20;;;;;;6309688;22;20003;-78
2023/05/21 00:36:13;;;;;;;6.63;5.22;;;20.30;82.80;;;;;;6338365;22;20320;-78
2023/05/21 00:38:42;;;;;;;7.30;5.75;;;20.20;83.10;;;;;;6338513;22;20026;-77
2023/05/21 00:41:09;;;;;;;7.00;5.73;;;20.20;83.00;;;;;;6338182;22;20052;-78
2023/05/21 00:43:39;;;;;;;6.90;6.20;;;20.30;83.00;;;;;;6337852;22;20221;-78
2023/05/21 00:46:06;;;;;;;8.05;5.78;;;20.30;82.80;;;;;;6338629;22;20481;-78
2023/05/21 00:48:32;;;;;;;7.32;5.50;;;20.20;83.30;;;;;;6338378;22;20037;-78
2023/05/21 00:50:58;;;;;;;6.15;5.55;;;20.20;82.60;;;;;;6338641;22;20417;-78
2023/05/21 00:53:23;;;;;;;6.88;6.00;;;20.30;82.50;;;;;;6339017;22;20082;-78
2023/05/21 00:55:50;;;;;;;6.63;5.82;;;20.30;82.30;;;;;;6338784;22;20023;-78
2023/05/21 00:58:16;;;;;;;6.18;5.55;;;20.20;82.20;;;;;;6338509;22;20066;-78
2023/05/21 01:00:43;;;;;;;9.25;5.78;;;20.20;82.10;;;;;;6338776;22;20014;-78
2023/05/21 01:03:09;;;;;;;6.50;5.80;;;20.20;82.20;;;;;;6338669;22;20007;-79
2023/05/21 01:05:35;;;;;;;6.90;6.20;;;20.30;82.60;;;;;;6340494;22;20003;-79
2023/05/21 01:08:01;;;;;;;6.82;6.13;;;20.30;82.70;;;;;;6340359;22;20073;-80
2023/05/21 01:10:28;;;;;;;5.80;5.18;;;20.20;82.40;;;;;;6340727;22;19995;-81
2023/05/21 01:12:56;;;;;;;7.40;5.85;;;20.20;82.50;;;;;;6340230;22;20038;-80
2023/05/21 01:15:23;;;;;;;7.38;5.90;;;20.20;82.30;;;;;;6340893;22;20002;-80
2023/05/21 01:17:50;;;;;;;6.97;6.05;;;20.20;82.50;;;;;;6313116;22;20005;-80
2023/05/21 01:20:18;;;;;;;6.38;5.50;;;20.20;82.10;;;;;;6340551;22;20424;-80
2023/05/21 01:23:02;;;;;;;8.07;5.72;;;20.20;82.10;;;;;;6312891;22;20032;-80
2023/05/21 01:25:28;;;;;;;7.63;6.07;;;20.20;82.20;;;;;;6339381;22;20006;-80
2023/05/21 01:27:53;;;;;;;6.45;5.15;;;20.20;82.10;;;;;;6340385;22;19999;-79
2023/05/21 01:30:22;;;;;;;10.07;6.07;;;20.10;82.10;;;;;;6340328;22;20007;-80
2023/05/21 01:33:11;;;;;;;6.28;5.63;;;20.10;82.10;;;;;;6339843;22;20437;-78
2023/05/21 01:36:07;;;;;;;7.25;5.57;;;20.10;81.90;;;;;;6339048;22;20013;-78
2023/05/21 01:38:41;;;;;;;6.00;5.40;;;20.10;82.00;;;;;;6340000;22;20005;-78
2023/05/21 01:41:10;;;;;;;9.20;5.80;;;20.10;82.00;;;;;;6312499;22;20030;-78
2023/05/21 01:43:42;;;;;;;8.95;5.90;;;20.00;82.10;;;;;;6340695;22;20413;-78
2023/05/21 01:46:12;;;;;;;8.30;6.53;;;20.10;82.10;;;;;;6340057;22;20013;-78
2023/05/21 01:48:39;;;;;;;6.40;5.28;;;20.10;82.00;;;;;;6339244;22;20003;-78
2023/05/21 01:51:05;;;;;;;6.82;5.22;;;20.00;81.90;;;;;;6339492;22;20011;-78
2023/05/21 01:53:31;;;;;;;5.65;5.05;;;20.00;82.00;;;;;;6340138;22;20305;-78
2023/05/21 01:55:58;;;;;;;6.40;5.03;;;20.00;81.90;;;;;;6339857;22;19995;-79
2023/05/21 01:58:24;;;;;;;6.13;5.00;;;20.00;81.10;;;;;;6339663;22;19999;-79
2023/05/21 02:00:50;;;;;;;6.95;5.30;;;20.10;81.20;;;;;;6339793;22;20305;-79
2023/05/21 02:03:18;;;;;;;6.22;4.93;;;20.10;81.10;;;;;;6339913;22;20002;-79
2023/05/21 02:05:43;;;;;;;5.25;4.75;;;20.00;80.80;;;;;;6338895;22;19999;-79
2023/05/21 02:08:10;;;;;;;6.25;4.60;;;20.10;80.80;;;;;;6339542;22;20014;-79
2023/05/21 02:10:35;;;;;;;6.13;4.80;;;20.00;81.00;;;;;;6340023;22;20003;-78
2023/05/21 02:13:01;;;;;;;6.93;5.07;;;20.10;80.50;;;;;;6339760;22;20423;-79
2023/05/21 02:15:27;;;;;;;5.20;4.70;;;20.00;79.80;;;;;;6338908;22;20287;-79
2023/05/21 02:17:52;;;;;;;5.63;4.80;;;20.10;79.90;;;;;;6340204;22;19999;-78
2023/05/21 02:20:18;;;;;;;4.57;3.97;;;20.10;79.20;;;;;;6339307;22;19995;-79
2023/05/21 02:22:46;;;;;;;6.07;4.78;;;20.10;79.40;;;;;;6339894;22;20527;-79
2023/05/21 02:25:14;;;;;;;5.53;4.75;;;20.10;79.00;;;;;;6311901;22;20332;-79
2023/05/21 02:27:41;;;;;;;5.13;4.60;;;20.10;79.50;;;;;;6339505;22;20025;-80
2023/05/21 02:30:10;;;;;;;4.90;3.85;;;20.10;79.00;;;;;;6339489;22;20026;-79
2023/05/21 02:32:36;;;;;;;5.40;4.72;;;20.10;79.00;;;;;;6339371;22;20003;-80
2023/05/21 02:35:03;;;;;;;5.57;5.00;;;20.10;78.90;;;;;;6312015;22;20002;-79
2023/05/21 02:37:33;;;;;;;5.88;4.20;;;20.10;78.40;;;;;;6339795;22;20010;-79
2023/05/21 02:40:00;;;;;;;4.53;3.80;;;20.10;77.90;;;;;;6339793;22;20051;-79
2023/05/21 02:42:26;;;;;;;5.60;4.43;;;20.10;78.10;;;;;;6339582;22;20351;-78
2023/05/21 02:44:52;;;;;;;7.50;5.57;;;20.10;77.80;;;;;;6311357;22;20006;-78
2023/05/21 02:47:19;;;;;;;6.72;4.95;;;20.20;77.90;;;;;;6339434;22;20020;-78
2023/05/21 02:49:45;;;;;;;7.00;4.75;;;20.20;77.90;;;;;;6339456;22;20037;-78
2023/05/21 02:52:11;;;;;;;5.22;4.25;;;20.10;77.40;;;;;;6339622;22;20048;-77
2023/05/21 02:54:36;;;;;;;5.53;4.32;;;20.20;77.80;;;;;;6339514;22;19999;-78
2023/05/21 02:57:02;;;;;;;4.97;4.43;;;20.20;77.60;;;;;;6339543;22;20005;-79
2023/05/21 02:59:28;;;;;;;5.22;4.65;;;20.20;77.40;;;;;;6339571;22;20385;-79
2023/05/21 03:01:54;;;;;;;4.95;4.32;;;20.10;77.10;;;;;;6339730;22;20002;-79
2023/05/21 03:04:22;;;;;;;6.25;4.47;;;20.20;76.90;;;;;;6339685;22;20003;-79
2023/05/21 03:06:53;;;;;;;4.80;4.03;;;20.20;77.10;;;;;;6338388;22;19998;-80
2023/05/21 03:09:20;;;;;;;5.30;4.38;;;20.20;76.80;;;;;;6338361;22;20022;-79
2023/05/21 03:11:46;;;;;;;4.47;3.80;;;20.20;76.80;;;;;;6339438;22;20074;-79
2023/05/21 03:14:12;;;;;;;6.03;4.55;;;20.30;76.60;;;;;;6339089;22;20034;-79
2023/05/21 03:16:40;;;;;;;4.90;4.38;;;20.30;76.50;;;;;;6340875;22;20137;-80
2023/05/21 03:19:06;;;;;;;6.30;4.22;;;20.30;76.30;;;;;;6341152;22;20389;-78
2023/05/21 03:21:32;;;;;;;7.15;4.93;;;20.30;76.20;;;;;;6339678;22;20002;-79
2023/05/21 03:23:59;;;;;;;6.50;4.50;;;20.30;76.40;;;;;;6312262;22;20007;-79
2023/05/21 03:26:28;;;;;;;6.72;4.35;;;20.30;76.20;;;;;;6339154;22;19998;-77
2023/05/21 03:28:55;;;;;;;6.10;4.75;;;20.30;76.40;;;;;;6339380;22;19999;-78
2023/05/21 03:31:22;;;;;;;5.78;4.63;;;20.30;76.30;;;;;;6339746;22;19998;-78
2023/05/21 03:33:47;;;;;;;5.47;4.60;;;20.30;76.40;;;;;;6340247;22;20009;-78
2023/05/21 03:36:13;;;;;;;4.82;4.00;;;20.30;76.50;;;;;;6340160;22;20023;-79
2023/05/21 03:38:39;;;;;;;9.35;5.22;;;20.30;76.50;;;;;;6339792;22;20026;-79
2023/05/21 03:41:06;;;;;;;4.63;4.00;;;20.30;76.70;;;;;;6339681;22;19999;-80
2023/05/21 03:43:32;;;;;;;5.72;4.57;;;20.30;76.70;;;;;;6339530;22;20068;-80
2023/05/21 03:45:58;;;;;;;5.55;4.20;;;20.30;76.80;;;;;;6312101;22;20007;-80
2023/05/21 03:48:23;;;;;;;5.20;4.35;;;20.30;76.70;;;;;;6311226;22;20006;-80
2023/05/21 03:50:49;;;;;;;5.50;4.13;;;20.30;76.80;;;;;;6339176;22;20011;-80
2023/05/21 03:53:14;;;;;;;5.43;4.65;;;20.30;76.80;;;;;;6338539;22;20431;-80
2023/05/21 03:55:40;;;;;;;4.80;4.28;;;20.30;76.90;;;;;;6338490;22;20077;-80
2023/05/21 03:58:06;;;;;;;5.57;4.18;;;20.30;76.90;;;;;;6338608;22;20007;-81
2023/05/21 04:00:33;;;;;;;4.80;4.30;;;20.30;77.00;;;;;;6339101;22;20039;-81
2023/05/21 04:02:59;;;;;;;5.40;4.55;;;20.30;77.00;;;;;;6339074;22;20479;-80
2023/05/21 04:05:24;;;;;;;6.20;4.95;;;20.40;77.00;;;;;;6311369;22;20002;-80
2023/05/21 04:07:50;;;;;;;5.10;4.13;;;20.30;77.10;;;;;;6338316;22;20002;-80
2023/05/21 04:10:15;;;;;;;6.15;5.22;;;20.40;77.10;;;;;;6338787;22;20003;-80
2023/05/21 04:12:41;;;;;;;5.55;4.38;;;20.40;77.10;;;;;;6338725;22;20034;-80
2023/05/21 04:15:07;;;;;;;6.68;4.95;;;20.40;77.10;;;;;;6339243;22;20036;-78
2023/05/21 04:17:34;;;;;;;5.75;4.80;;;20.40;77.20;;;;;;6311190;22;20298;-78
2023/05/21 04:20:00;;;;;;;5.25;4.75;;;20.40;77.10;;;;;;6310682;22;20310;-78
2023/05/21 04:22:25;;;;;;;6.68;5.18;;;20.40;77.00;;;;;;6338861;22;20002;-79
2023/05/21 04:24:54;;;;;;;7.40;5.47;;;20.40;77.60;;;;;;6339152;22;20005;-79
2023/05/21 04:27:24;;;;;;;5.60;4.55;;;20.40;77.10;;;;;;6310814;22;20003;-80
2023/05/21 04:29:49;;;;;;;5.25;4.47;;;20.40;77.10;;;;;;6311221;22;19999;-79
2023/05/21 04:32:16;;;;;;;5.70;4.60;;;20.50;77.30;;;;;;6338302;22;20002;-79
2023/05/21 04:34:43;;;;;;;4.38;3.92;;;20.50;77.40;;;;;;6338285;22;20365;-79
2023/05/21 04:37:09;;;;;;;7.00;4.35;;;20.50;77.60;;;;;;6338538;22;20006;-78
2023/05/21 04:39:35;;;;;;;5.60;4.60;;;20.50;77.60;;;;;;6310575;22;20373;-78
2023/05/21 04:42:02;;;;;;;5.75;4.50;;;20.50;77.80;;;;;;6310861;22;20325;-79
2023/05/21 04:44:28;;;;;;;5.72;4.38;;;20.50;77.80;;;;;;6338109;22;20002;-78
2023/05/21 04:46:54;;;;;;;6.65;4.53;;;20.50;77.80;;;;;;6338472;22;20452;-79
2023/05/21 04:49:20;;;;;;;5.82;4.07;;;20.50;78.00;;;;;;6338606;22;19998;-78
2023/05/21 04:51:46;;;;;;;8.60;4.95;;;20.50;78.10;;;;;;6338305;22;20072;-78
2023/05/21 04:54:11;;;;;;;5.45;4.43;;;20.60;78.20;;;;;;6338480;22;20002;-80
2023/05/21 04:56:37;;;;;;;6.00;4.85;;;20.60;78.70;;;;;;6337322;22;20320;-79
2023/05/21 04:59:03;;;;;;;5.43;4.30;;;20.60;78.10;;;;;;6338268;22;19997;-78
2023/05/21 05:01:31;;;;;;;8.32;4.65;;;20.60;78.20;;;;;;6338722;22;20086;-78
2023/05/21 05:03:57;;;;;;;5.20;4.70;;;20.60;78.30;;;;;;6338582;22;20086;-78
2023/05/21 05:06:24;;;;;;;7.50;4.40;;;20.60;78.30;;;;;;6338707;22;20051;-78
2023/05/21 05:08:50;;;;;;;4.55;3.97;;;20.60;78.30;;;;;;6337728;22;20003;-80
2023/05/21 05:11:16;;;;;;;5.10;4.55;;;20.60;78.40;;;;;;6338048;22;20090;-78
2023/05/21 05:13:41;;;;;;;8.57;4.60;;;20.70;78.40;;;;;;6338031;22;20006;-78
2023/05/21 05:16:07;;;;;;;6.75;4.90;;;20.70;78.50;;;;;;6338967;22;20347;-78
2023/05/21 05:18:34;;;;;;;8.48;5.10;;;20.80;78.70;;;;;;6337234;22;20006;-78
2023/05/21 05:21:00;;;;;;;5.95;4.40;;;20.80;78.70;;;;;;6338792;22;20435;-79
2023/05/21 05:23:25;;;;;;;5.53;4.53;;;20.80;78.90;;;;;;6338467;22;20003;-81
2023/05/21 05:25:51;;;;;;;5.90;4.57;;;20.80;78.80;;;;;;6338850;22;20027;-79
2023/05/21 05:28:17;;;;;;;5.00;4.47;;;20.90;78.70;;;;;;6310605;22;20464;-79
2023/05/21 05:30:43;;;;;;;5.47;4.78;;;20.90;78.40;;;;;;6338613;22;20085;-79
2023/05/21 05:33:08;;;;;;;6.22;4.40;;;20.90;78.30;;;;;;6338073;22;20013;-80
2023/05/21 05:35:35;;;;;;;5.43;4.93;;;21.00;78.90;;;;;;6338555;22;20027;-79
2023/05/21 05:38:00;;;;;;;4.90;4.20;;;20.90;78.20;;;;;;6335739;22;20098;-80
2023/05/21 05:40:26;;;;;;;9.05;4.45;;;21.00;78.20;;;;;;6336741;22;20018;-80
2023/05/21 05:42:52;;;;;;;7.85;4.93;;;20.90;78.40;;;;;;6310007;22;20333;-80
2023/05/21 05:45:18;;;;;;;7.85;5.05;;;21.00;78.40;;;;;;6337306;22;19998;-80
2023/05/21 05:47:45;;;;;;;5.40;4.47;;;20.90;78.30;;;;;;6337014;22;20103;-80
2023/05/21 05:50:10;;;;;;;5.40;4.35;;;21.00;78.40;;;;;;6338538;22;20089;-80
2023/05/21 05:52:36;;;;;;;6.85;5.13;;;21.00;78.40;;;;;;6338773;22;20436;-80
2023/05/21 05:55:02;;;;;;;6.32;4.10;;;21.00;78.40;;;;;;6339551;22;20378;-80
2023/05/21 05:57:28;;;;;;;6.40;4.97;;;21.00;78.50;;;;;;6339396;22;20374;-80
2023/05/21 05:59:53;;;;;;;5.82;4.80;;;21.00;78.40;;;;;;6339488;22;20452;-79
2023/05/21 06:02:19;;;;;;;4.82;4.18;;;21.10;78.40;;;;;;6338477;22;19999;-80
2023/05/21 06:04:45;;;;;;;6.10;5.07;;;21.00;78.60;;;;;;6339358;22;19994;-79
2023/05/21 06:07:11;;;;;;;4.85;4.20;;;21.00;78.70;;;;;;6339153;22;20002;-80
2023/05/21 06:09:37;;;;;;;6.88;5.00;;;21.00;78.70;;;;;;6339371;22;19999;-79
2023/05/21 06:12:06;;;;;;;5.90;4.22;;;21.00;78.80;;;;;;6310765;22;20343;-79
2023/05/21 06:14:32;;;;;;;7.78;4.63;;;21.00;78.90;;;;;;6339144;22;20056;-80
2023/05/21 06:16:58;;;;;;;6.03;4.88;;;21.10;79.10;;;;;;6339373;22;19999;-81
2023/05/21 06:19:23;;;;;;;4.80;4.20;;;21.00;79.10;;;;;;6309503;22;20037;-80
2023/05/21 06:21:49;;;;;;;8.30;5.22;;;21.00;79.00;;;;;;6338773;22;20075;-81
2023/05/21 06:24:15;;;;;;;4.93;4.43;;;21.10;78.70;;;;;;6338789;22;19999;-80
2023/05/21 06:26:41;;;;;;;5.68;3.92;;;21.10;78.70;;;;;;6339265;22;20072;-81
2023/05/21 06:29:07;;;;;;;6.50;4.80;;;21.10;78.60;;;;;;6338463;22;20018;-81
2023/05/21 06:31:33;;;;;;;5.82;4.68;;;21.20;78.30;;;;;;6337778;22;20056;-81
2023/05/21 06:33:59;;;;;;;5.47;4.10;;;21.20;77.90;;;;;;6339061;22;20007;-85
2023/05/21 06:36:28;;;;;;;4.70;3.90;;;21.30;77.80;;;;;;6311464;22;20433;-83
2023/05/21 06:38:55;;;;;;;5.72;4.40;;;21.40;77.50;;;;;;6339388;22;19995;-83
2023/05/21 06:41:21;;;;;;;7.40;4.57;;;21.50;77.30;;;;;;6339439;22;20030;-84
2023/05/21 06:43:47;;;;;;;8.00;4.70;;;21.50;77.30;;;;;;6339869;22;20045;-86
2023/05/21 06:46:13;;;;;;;5.55;4.63;;;21.60;77.00;;;;;;6339322;22;20420;-82
2023/05/21 06:48:38;;;;;;;5.03;4.07;;;21.50;76.60;;;;;;6312575;22;20317;-85
2023/05/21 06:51:04;;;;;;;9.07;4.30;;;21.70;76.30;;;;;;6339697;22;20337;-85
2023/05/21 06:53:29;;;;;;;6.43;5.07;;;21.70;76.60;;;;;;6338658;22;20006;-83
2023/05/21 06:55:55;;;;;;;6.90;4.95;;;21.70;76.20;;;;;;6339804;22;20005;-89
2023/05/21 06:58:21;;;;;;;8.23;4.53;;;21.80;76.10;;;;;;6339652;22;20036;-88
2023/05/21 07:00:47;;;;;;;7.70;4.60;;;21.80;75.70;;;;;;6338315;22;20038;-88
2023/05/21 07:03:13;;;;;;;6.60;4.20;;;21.80;75.90;;;;;;6337974;22;20003;-88
2023/05/21 07:05:39;;;;;;;6.00;4.13;;;21.80;74.90;;;;;;6310646;22;20010;-89
2023/05/21 07:08:05;;;;;;;6.22;4.32;;;21.80;75.20;;;;;;6338352;22;19999;-86
2023/05/21 07:10:34;;;;;;;7.93;4.70;;;21.90;75.00;;;;;;6337531;22;20041;-85
2023/05/21 07:13:00;;;;;;;4.90;3.90;;;21.90;74.70;;;;;;6310286;22;20014;-82
2023/05/21 07:15:26;;;;;;;7.22;4.28;;;21.90;74.90;;;;;;6337515;22;20217;-81
2023/05/21 07:17:51;;;;;;;5.53;4.30;;;21.90;74.90;;;;;;6311286;22;20426;-81
2023/05/21 07:20:17;;;;;;;7.20;4.70;;;22.00;75.00;;;;;;6338682;22;19999;-82
2023/05/21 07:22:43;;;;;;;5.45;4.28;;;22.10;74.80;;;;;;6339112;22;20006;-82
2023/05/21 07:25:08;;;;;;;6.70;4.43;;;22.10;74.90;;;;;;6338988;22;20030;-81
2023/05/21 07:27:34;;;;;;;6.05;4.75;;;22.20;74.60;;;;;;6339687;22;19999;-82
2023/05/21 07:30:00;;;;;;;7.75;5.82;;;22.30;73.90;;;;;;6339484;22;20009;-82
2023/05/21 07:32:27;;;;;;;9.27;4.60;;;22.40;74.00;;;;;;6339161;22;20009;-81
2023/05/21 07:34:54;;;;;;;5.97;3.78;;;22.50;74.30;;;;;;6311929;22;20075;-83
2023/05/21 07:37:19;;;;;;;6.47;4.63;;;22.60;74.40;;;;;;6340066;22;20006;-82
2023/05/21 07:39:45;;;;;;;6.13;4.45;;;22.70;74.00;;;;;;6311610;22;20010;-82
2023/05/21 07:42:11;;;;;;;5.47;4.97;;;22.80;74.10;;;;;;6339748;22;19999;-81
2023/05/21 07:44:37;;;;;;;5.95;4.25;;;22.90;72.90;;;;;;6339120;22;20018;-82
2023/05/21 07:47:02;;;;;;;9.68;5.47;;;23.00;72.80;;;;;;6339437;22;20427;-82
2023/05/21 07:49:28;;;;;;;5.15;3.83;;;23.10;72.90;;;;;;6339527;22;20003;-82
2023/05/21 07:51:54;;;;;;;8.40;5.22;;;23.20;73.10;;;;;;6339474;22;20015;-82
2023/05/21 07:54:19;;;;;;;6.22;4.57;;;23.20;73.00;;;;;;6311318;22;20404;-82
2023/05/21 07:56:45;;;;;;;6.53;5.80;;;23.30;73.00;;;;;;6339190;22;20006;-82
2023/05/21 07:59:13;;;;;;;7.18;4.55;;;23.40;73.00;;;;;;6339403;22;19999;-83
2023/05/21 08:01:39;;;;;;;4.65;4.00;;;23.50;72.50;;;;;;6338344;22;20497;-81
2023/05/21 08:04:05;;;;;;;10.35;4.28;;;23.60;73.30;;;;;;6339240;22;20003;-81
2023/05/21 08:06:32;;;;;;;6.13;5.13;;;23.70;72.60;;;;;;6339209;22;19999;-81
2023/05/21 08:09:00;;;;;;;6.30;4.30;;;23.70;70.30;;;;;;6339588;22;19999;-81
2023/05/21 08:11:27;;;;;;;8.07;5.13;;;23.80;71.40;;;;;;6311675;22;20013;-81
2023/05/21 08:13:52;;;;;;;5.20;4.70;;;23.90;70.30;;;;;;6338205;22;20006;-81
2023/05/21 08:16:18;;;;;;;5.95;4.50;;;24.00;70.50;;;;;;6339301;22;20002;-81
2023/05/21 08:18:44;;;;;;;7.05;4.63;;;24.00;70.50;;;;;;6339058;22;20088;-81
2023/05/21 08:21:10;;;;;;;6.95;4.05;;;24.10;70.20;;;;;;6339493;22;19995;-81
2023/05/21 08:23:36;;;;;;;7.03;5.07;;;24.20;70.50;;;;;;6339579;22;20006;-81
2023/05/21 08:26:01;;;;;;;5.05;4.35;;;24.20;69.90;;;;;;6339090;22;20014;-81
2023/05/21 08:28:27;;;;;;;5.68;4.28;;;24.40;70.70;;;;;;6311599;22;20356;-81
2023/05/21 08:30:53;;;;;;;7.93;4.70;;;24.40;70.50;;;;;;6339193;22;19999;-81
2023/05/21 08:33:19;;;;;;;6.00;5.18;;;24.50;68.90;;;;;;6338669;22;20314;-81
2023/05/21 08:35:44;;;;;;;7.43;4.47;;;24.50;68.00;;;;;;6338771;22;19995;-81
2023/05/21 08:38:10;;;;;;;6.20;4.53;;;24.70;69.50;;;;;;6310698;22;20005;-81
2023/05/21 08:40:36;;;;;;;8.02;5.22;;;24.70;67.90;;;;;;6339230;22;19999;-81
2023/05/21 08:43:02;;;;;;;5.95;4.38;;;24.80;69.40;;;;;;6339478;22;20003;-81
2023/05/21 08:45:36;;;;;;;7.07;4.10;;;24.80;68.70;;;;;;6338491;22;19998;-81
2023/05/21 08:48:02;;;;;;;7.38;4.57;;;24.90;68.70;;;;;;6339178;22;20048;-81
2023/05/21 08:50:28;;;;;;;9.43;4.15;;;25.00;69.00;;;;;;6339206;22;20015;-81
2023/05/21 08:52:54;;;;;;;10.60;5.57;;;25.10;68.30;;;;;;6339016;22;20002;-81
2023/05/21 08:55:21;;;;;;;9.30;4.75;;;25.20;66.70;;;;;;6338400;22;20448;-82
2023/05/21 08:57:47;;;;;;;5.38;4.35;;;25.20;66.20;;;;;;6338646;22;20409;-81
2023/05/21 09:00:14;;;;;;;5.68;4.32;;;25.30;66.30;;;;;;6338869;22;20336;-81
2023/05/21 09:02:42;;;;;;;6.50;4.03;;;25.40;66.50;;;;;;6339411;22;19999;-81
2023/05/21 09:05:08;;;;;;;5.07;4.05;;;25.50;65.90;;;;;;6339319;22;20052;-81
2023/05/21 09:07:42;;;;;;;6.32;4.82;;;25.60;65.70;;;;;;6338232;22;20147;-81
2023/05/21 09:10:11;;;;;;;7.15;4.57;;;25.60;63.30;;;;;;6311474;22;20003;-81
2023/05/21 09:12:37;;;;;;;5.10;4.45;;;25.70;63.10;;;;;;6338702;22;20002;-81
2023/05/21 09:15:04;;;;;;;7.03;4.35;;;25.70;63.20;;;;;;6338783;22;20025;-81
2023/05/21 09:17:29;;;;;;;8.00;4.20;;;25.80;64.10;;;;;;6338534;22;20044;-81
2023/05/21 09:20:12;;;;;;;5.35;4.28;;;25.80;63.50;;;;;;6339098;22;20012;-81
2023/05/21 09:22:41;;;;;;;13.02;5.32;;;25.90;62.10;;;;;;6338650;22;20002;-81
2023/05/21 09:25:08;;;;;;;8.65;4.18;;;26.00;62.70;;;;;;6339409;22;20022;-81
2023/05/21 09:27:34;;;;;;;7.65;3.63;;;26.00;60.50;;;;;;6339899;22;20006;-81
2023/05/21 09:30:07;;;;;;;5.35;3.63;;;26.10;61.70;;;;;;6312488;22;20003;-81
2023/05/21 09:32:33;;;;;;;9.00;4.85;;;26.20;62.00;;;;;;6339903;22;20029;-81
2023/05/21 09:35:14;;;;;;;5.10;4.03;;;26.30;59.90;;;;;;6313115;22;19999;-81
2023/05/21 09:37:43;;;;;;;7.07;4.30;;;26.40;61.20;;;;;;6340219;22;20405;-81
2023/05/21 09:40:14;;;;;;;4.78;3.80;;;26.50;61.30;;;;;;6340736;22;20023;-81
2023/05/21 09:42:45;;;;;;;7.45;4.40;;;26.60;61.70;;;;;;6340619;22;20463;-81
2023/05/21 09:45:11;;;;;;;4.82;3.83;;;26.60;61.70;;;;;;6340065;22;20041;-80
2023/05/21 09:47:47;;;;;;;7.95;4.63;;;26.70;60.20;;;;;;6340432;22;20006;-81
2023/05/21 09:50:17;;;;;;;6.40;3.63;;;26.80;59.40;;;;;;6340129;22;20042;-82
2023/05/21 09:52:42;;;;;;;4.93;3.80;;;26.90;60.30;;;;;;6340198;22;19998;-81
2023/05/21 09:55:12;;;;;;;5.50;4.00;;;27.00;59.20;;;;;;6340203;22;20003;-82
2023/05/21 09:57:46;;;;;;;5.55;3.90;;;27.10;59.40;;;;;;6340327;22;20034;-87
2023/05/21 10:00:23;;;;;;;5.35;4.00;;;27.20;59.10;;;;;;6340107;22;20023;-87
2023/05/21 10:02:53;;;;;;;7.00;3.97;;;27.30;59.30;;;;;;6340730;22;20077;-87
2023/05/21 10:05:19;;;;;;;4.72;4.25;;;27.40;59.00;;;;;;6340659;22;20026;-87
2023/05/21 10:07:50;;;;;;;5.18;3.28;;;27.50;59.20;;;;;;6312114;22;20705;-87
2023/05/21 10:10:18;;;;;;;4.78;3.60;;;27.50;58.80;;;;;;6339333;22;20013;-86
2023/05/21 10:12:46;;;;;;;5.07;3.53;;;27.60;58.90;;;;;;6339876;22;20007;-87
2023/05/21 10:15:16;;;;;;;9.20;4.55;;;27.70;59.90;;;;;;6339920;22;20002;-87
2023/05/21 10:17:42;;;;;;;;;;;27.90;60.10;;;;;;6340564;22;20294;-92
2023/05/21 10:20:10;;;;;;;4.38;3.35;;;28.00;57.90;;;;;;6314153;22;19903;-91
2023/05/21 10:22:36;;;;;;;5.85;4.00;;;28.00;57.60;;;;;;6313803;22;19999;-90
2023/05/21 10:25:04;;;;;;;4.55;3.80;;;28.00;56.10;;;;;;6315246;22;20509;-90
2023/05/21 10:27:31;;;;;;;4.78;3.55;;;28.10;58.10;;;;;;6340666;22;19995;-90
2023/05/21 10:29:58;;;;;;;4.72;4.22;;;28.10;58.60;;;;;;6314890;22;20009;-90
2023/05/21 10:32:25;;;;;;;5.20;3.80;;;28.20;57.50;;;;;;6313682;22;19999;-89
2023/05/21 10:34:53;;;;;;;5.03;3.95;;;28.30;57.70;;;;;;6343488;22;20027;-89
2023/05/21 10:37:23;;;;;;;7.72;3.60;;;28.40;55.20;;;;;;6341154;22;20429;-90
2023/05/21 10:39:49;;;;;;;;;;;28.50;56.90;;;;;;6341693;22;20002;-90
2023/05/21 10:42:58;;;;;;;5.20;3.83;;;28.50;56.60;;;;;;6341064;22;19899;-90
2023/05/21 10:45:51;;;;;;;8.40;4.32;;;28.60;54.80;;;;;;6341532;22;19998;-90
2023/05/21 10:48:46;;;;;;;4.55;4.10;;;28.60;54.80;;;;;;6341170;22;19995;-90
2023/05/21 10:51:27;;;;;;;5.82;3.53;;;28.70;52.60;;;;;;6313688;22;20037;-90
2023/05/21 10:54:12;;;;;;;5.10;3.67;;;28.70;51.70;;;;;;6340268;22;20026;-90
2023/05/21 10:56:55;;;;;;;5.85;3.40;;;28.80;53.60;;;;;;6340524;22;19999;-90
2023/05/21 10:59:41;;;;;;;7.07;4.43;;;29.00;54.20;;;;;;6340795;22;20006;-90
2023/05/21 11:02:10;;;;;;;5.30;3.17;;;29.10;52.50;;;;;;6341328;22;20003;-90
2023/05/21 11:04:38;;;;;;;5.65;3.75;;;29.20;53.70;;;;;;6312600;22;20358;-90
2023/05/21 11:07:04;;;;;;;8.27;4.80;;;29.40;54.20;;;;;;6341026;22;20010;-90
2023/05/21 11:09:31;;;;;;;3.78;3.15;;;29.60;53.50;;;;;;6339649;22;20157;-90
2023/05/21 11:11:57;;;;;;;4.32;3.55;;;29.70;53.20;;;;;;6339870;22;20026;-90
2023/05/21 11:14:36;;;;;;;6.75;4.00;;;29.70;52.40;;;;;;6339901;22;20394;-89
2023/05/21 11:17:08;;;;;;;5.88;3.63;;;29.80;51.80;;;;;;6340520;22;20030;-89
2023/05/21 11:19:42;;;;;;;6.63;4.30;;;29.90;52.20;;;;;;6311952;22;20716;-90
2023/05/21 11:22:27;;;;;;;8.13;3.58;;;30.10;51.60;;;;;;6313445;22;20006;-92
2023/05/21 11:24:55;;;;;;;5.03;3.53;;;30.30;51.30;;;;;;6339975;22;20011;-89
2023/05/21 11:27:43;;;;;;;6.15;4.32;;;30.40;52.40;;;;;;6340960;22;20475;-91
2023/05/21 11:30:13;;;;;;;5.47;3.85;;;30.70;51.40;;;;;;6340318;22;20003;-88
2023/05/21 11:33:00;;;;;;;6.60;3.78;;;31.00;49.40;;;;;;6340628;22;20005;-89
2023/05/21 11:35:26;;;;;;;5.45;3.60;;;31.30;50.60;;;;;;6312438;22;20054;-89
2023/05/21 11:37:55;;;;;;;6.22;3.67;;;31.70;50.20;;;;;;6339443;22;20006;-88
2023/05/21 11:40:26;;;;;;;8.27;6.05;;;32.10;50.20;;;;;;6340493;22;20033;-89
2023/05/21 11:42:55;;;;;;;10.50;7.50;;;32.40;49.20;;;;;;6338708;22;20014;-80
2023/05/21 11:45:23;;;;;;;7.90;5.30;;;32.70;49.80;;;;;;6338544;22;20325;-81
2023/05/21 11:47:51;;;;;;;6.65;4.55;;;32.90;47.30;;;;;;6309688;22;20014;-81
2023/05/21 11:50:17;;;;;;;5.40;4.00;;;33.00;47.00;;;;;;6305204;22;20022;-81
2023/05/21 11:52:44;;;;;;;10.27;5.20;;;33.20;47.90;;;;;;6336167;22;20445;-83
2023/05/21 11:55:10;;;;;;;7.57;3.33;;;33.40;48.10;;;;;;6337256;22;19995;-84
2023/05/21 11:57:36;;;;;;;6.47;4.18;;;33.50;44.70;;;;;;6336025;22;19995;-84
2023/05/21 12:00:12;;;;;;;6.53;4.20;;;33.60;45.50;;;;;;6309541;22;20055;-83
2023/05/21 12:02:44;;;;;;;7.53;4.05;;;33.60;44.60;;;;;;6336318;22;20022;-82
2023/05/21 12:05:09;;;;;;;5.70;3.83;;;33.80;44.00;;;;;;6337474;22;20379;-83
2023/05/21 12:07:35;;;;;;;7.10;4.32;;;33.80;42.70;;;;;;6308852;22;20085;-82
2023/05/21 12:10:01;;;;;;;5.75;3.20;;;33.90;43.80;;;;;;6336931;22;20003;-82
2023/05/21 12:12:27;;;;;;;4.38;3.70;;;34.00;44.90;;;;;;6336757;22;20002;-82
2023/05/21 12:14:54;;;;;;;13.55;3.50;;;34.20;45.40;;;;;;6308628;22;20333;-83
2023/05/21 12:17:25;;;;;;;5.22;3.88;;;34.30;44.40;;;;;;6338790;22;20070;-90
2023/05/21 12:19:52;;;;;;;7.55;3.33;;;34.30;43.10;;;;;;6339176;22;20357;-82
2023/05/21 12:22:18;;;;;;;6.70;3.70;;;34.40;42.80;;;;;;6337615;22;20009;-82
2023/05/21 12:24:44;;;;;;;5.28;3.88;;;34.50;43.00;;;;;;6338325;22;20007;-82
2023/05/21 12:27:12;;;;;;;4.75;3.67;;;34.50;43.00;;;;;;6338305;22;20031;-82
2023/05/21 12:29:41;;;;;;;5.85;3.65;;;34.60;43.30;;;;;;6338504;22;20006;-82
2023/05/21 12:32:08;;;;;;;4.88;3.80;;;34.60;42.50;;;;;;6338338;22;20010;-82
2023/05/21 12:34:44;;;;;;;8.82;4.53;;;34.60;42.20;;;;;;6310072;22;20006;-81
2023/05/21 12:37:31;;;;;;;5.25;3.55;;;34.50;42.80;;;;;;6336873;22;20003;-82
2023/05/21 12:40:03;;;;;;;7.78;3.60;;;34.50;42.70;;;;;;6337689;22;20085;-80
2023/05/21 12:42:33;;;;;;;7.30;4.22;;;34.50;42.20;;;;;;6338010;22;20082;-81
2023/05/21 12:45:00;;;;;;;4.80;3.22;;;34.50;42.10;;;;;;6310004;22;20003;-82
2023/05/21 12:47:27;;;;;;;6.25;3.45;;;34.50;42.10;;;;;;6310323;22;20337;-82
2023/05/21 12:49:56;;;;;;;16.00;3.95;;;34.60;42.90;;;;;;6310190;22;20290;-82
2023/05/21 12:52:23;;;;;;;;;;;34.60;40.70;;;;;;6310862;22;20006;-83